createdAt,value
2023-05-25T00:01:14.025Z,76.77
2023-05-25T00:03:40.870Z,76.84
2023-05-25T00:06:08.051Z,76.84
2023-05-25T00:08:35.035Z,77.33
2023-05-25T00:11:01.837Z,77.24
2023-05-25T00:13:31.151Z,77.63
2023-05-25T00:15:58.598Z,77.82
2023-05-25T00:18:25.423Z,77.79
2023-05-25T00:20:55.306Z,78.21
2023-05-25T00:23:25.065Z,78.20
2023-05-25T00:25:52.053Z,78.25
2023-05-25T00:28:19.051Z,78.37
2023-05-25T00:30:45.988Z,77.83
2023-05-25T00:33:13.182Z,77.97
2023-05-25T00:35:39.808Z,77.66
2023-05-25T00:38:09.216Z,77.94
2023-05-25T00:40:39.377Z,77.88
2023-05-25T00:43:08.550Z,78.02
2023-05-25T00:45:35.806Z,78.39
2023-05-25T00:48:04.992Z,78.26
2023-05-25T00:50:42.527Z,78.44
2023-05-25T00:53:10.999Z,78.29
2023-05-25T00:55:46.185Z,78.53
2023-05-25T00:58:14.008Z,78.78
2023-05-25T01:00:43.118Z,78.49
2023-05-25T01:03:17.870Z,78.63
2023-05-25T01:05:48.837Z,78.77
2023-05-25T01:08:18.379Z,79.03
2023-05-25T01:10:52.871Z,79.11
2023-05-25T01:13:21.443Z,78.78
2023-05-25T01:15:48.841Z,79.06
2023-05-25T01:18:17.018Z,79.42
2023-05-25T01:21:18.225Z,79.33
2023-05-25T01:23:53.369Z,79.70
2023-05-25T01:26:23.837Z,80.09
2023-05-25T01:28:53.262Z,80.40
2023-05-25T01:31:23.941Z,80.26
2023-05-25T01:33:52.560Z,80.60
2023-05-25T01:36:21.986Z,80.79
2023-05-25T01:38:49.616Z,81.03
2023-05-25T01:41:16.342Z,81.43
2023-05-25T01:43:43.225Z,81.49
2023-05-25T01:46:15.217Z,81.14
2023-05-25T01:49:21.705Z,80.88
2023-05-25T01:52:01.246Z,81.24
2023-05-25T01:54:35.916Z,81.10
2023-05-25T01:57:10.912Z,80.98
2023-05-25T01:59:43.967Z,81.15
2023-05-25T02:02:13.796Z,81.26
2023-05-25T02:04:41.576Z,81.63
2023-05-25T02:07:08.490Z,81.71
2023-05-25T02:09:35.635Z,81.86
2023-05-25T02:12:04.987Z,82.15
2023-05-25T02:14:31.607Z,81.82
2023-05-25T02:17:01.963Z,82.25
2023-05-25T02:19:29.494Z,82.41
2023-05-25T02:21:56.331Z,82.57
2023-05-25T02:24:25.102Z,82.64
2023-05-25T02:26:51.937Z,82.50
2023-05-25T02:29:18.975Z,82.48
2023-05-25T02:31:46.094Z,81.99
2023-05-25T02:34:14.812Z,82.11
2023-05-25T02:36:43.540Z,81.94
2023-05-25T02:39:11.831Z,82.30
2023-05-25T02:41:39.440Z,82.22
2023-05-25T02:44:06.631Z,82.27
2023-05-25T02:46:34.127Z,82.26
2023-05-25T02:49:01.108Z,82.55
2023-05-25T02:51:29.106Z,82.28
2023-05-25T02:53:56.496Z,82.47
2023-05-25T02:56:23.306Z,82.26
2023-05-25T02:58:50.424Z,82.33
2023-05-25T03:01:20.044Z,82.07
2023-05-25T03:03:47.478Z,82.16
2023-05-25T03:06:17.078Z,82.60
2023-05-25T03:08:46.293Z,82.18
2023-05-25T03:11:15.561Z,81.78
2023-05-25T03:13:42.533Z,82.14
2023-05-25T03:16:09.882Z,82.22
2023-05-25T03:18:36.850Z,82.07
2023-05-25T03:21:04.092Z,81.95
2023-05-25T03:23:30.864Z,82.42
2023-05-25T03:25:58.159Z,82.12
2023-05-25T03:28:28.173Z,82.04
2023-05-25T03:30:54.907Z,82.32
2023-05-25T03:33:21.616Z,82.36
2023-05-25T03:35:50.752Z,82.18
2023-05-25T03:38:17.628Z,81.79
2023-05-25T03:40:44.419Z,82.49
2023-05-25T03:43:11.635Z,82.86
2023-05-25T03:45:41.053Z,82.99
2023-05-25T03:48:08.106Z,83.23
2023-05-25T03:50:35.011Z,83.16
2023-05-25T03:53:01.793Z,83.08
2023-05-25T03:55:29.182Z,83.68
2023-05-25T03:57:55.979Z,83.75
2023-05-25T04:00:22.870Z,84.22
2023-05-25T04:02:49.836Z,83.70
2023-05-25T04:05:16.561Z,84.05
2023-05-25T04:07:43.665Z,83.85
2023-05-25T04:10:11.292Z,84.08
2023-05-25T04:12:38.613Z,84.17
2023-05-25T04:15:09.152Z,84.35
2023-05-25T04:17:39.121Z,83.15
2023-05-25T04:20:09.091Z,82.82
2023-05-25T04:22:39.066Z,82.36
2023-05-25T04:25:08.278Z,82.75
2023-05-25T04:27:34.989Z,81.96
2023-05-25T04:30:01.885Z,82.54
2023-05-25T04:32:30.085Z,82.12
2023-05-25T04:34:57.318Z,82.31
2023-05-25T04:37:27.288Z,82.28
2023-05-25T04:39:54.354Z,81.89
2023-05-25T04:42:24.030Z,81.40
2023-05-25T04:44:55.952Z,80.42
2023-05-25T04:47:25.058Z,79.90
2023-05-25T04:49:52.047Z,79.87
2023-05-25T04:52:18.886Z,79.62
2023-05-25T04:54:46.951Z,79.39
2023-05-25T04:57:13.665Z,75.86
2023-05-25T04:59:41.131Z,69.27
2023-05-25T05:02:08.723Z,66.49
2023-05-25T05:04:37.423Z,64.15
2023-05-25T05:07:04.348Z,62.04
2023-05-25T05:09:30.993Z,60.87
2023-05-25T05:11:57.720Z,59.92
2023-05-25T05:14:24.532Z,57.23
2023-05-25T05:16:51.558Z,55.30
2023-05-25T05:19:18.413Z,53.21
2023-05-25T05:21:47.595Z,52.34
2023-05-25T05:24:17.281Z,50.29
2023-05-25T05:26:55.503Z,49.92
2023-05-25T05:29:24.200Z,49.29
2023-05-25T05:31:51.149Z,48.47
2023-05-25T05:34:17.938Z,48.70
2023-05-25T05:36:56.430Z,47.21
2023-05-25T05:39:24.507Z,46.78
2023-05-25T05:41:51.356Z,46.27
2023-05-25T05:44:18.715Z,46.55
2023-05-25T05:46:46.496Z,46.69
2023-05-25T05:49:13.517Z,46.89
2023-05-25T05:51:40.231Z,46.49
2023-05-25T05:54:07.206Z,46.26
2023-05-25T05:56:33.910Z,45.18
2023-05-25T05:59:00.833Z,45.05
2023-05-25T06:01:27.698Z,45.05
2023-05-25T06:03:56.115Z,45.05
2023-05-25T06:06:25.734Z,44.87
2023-05-25T06:08:53.669Z,45.48
2023-05-25T06:11:20.657Z,44.74
2023-05-25T06:13:47.673Z,45.90
2023-05-25T06:16:14.734Z,47.72
2023-05-25T06:51:06.252Z,40.94
2023-05-25T06:53:36.093Z,40.81
2023-05-25T06:56:02.835Z,40.97
2023-05-25T06:58:32.643Z,41.85
2023-05-25T07:01:01.678Z,41.07
2023-05-25T07:03:28.732Z,40.87
2023-05-25T07:05:57.643Z,40.57
2023-05-25T07:08:24.366Z,41.13
2023-05-25T07:10:51.680Z,41.42
2023-05-25T07:13:18.454Z,41.57
2023-05-25T07:15:45.406Z,41.04
2023-05-25T07:18:15.436Z,39.93
2023-05-25T07:20:42.731Z,40.20
2023-05-25T07:23:10.484Z,41.63
2023-05-25T07:25:41.716Z,40.39
2023-05-25T07:28:08.904Z,39.68
2023-05-25T07:30:36.196Z,39.75
2023-05-25T07:33:03.384Z,39.59
2023-05-25T07:35:30.278Z,39.43
2023-05-25T07:38:00.808Z,39.09
2023-05-25T07:40:28.142Z,38.85
2023-05-25T07:42:55.383Z,37.53
2023-05-25T07:45:22.599Z,37.17
2023-05-25T07:47:49.587Z,37.47
2023-05-25T07:50:19.058Z,36.74
2023-05-25T07:52:46.983Z,36.34
2023-05-25T07:55:14.049Z,35.56
2023-05-25T07:57:40.868Z,35.18
2023-05-25T08:00:12.129Z,36.11
2023-05-25T08:02:42.102Z,35.83
2023-05-25T08:05:10.200Z,36.08
2023-05-25T08:07:40.753Z,36.02
2023-05-25T08:10:10.353Z,36.45
2023-05-25T08:12:46.851Z,36.80
2023-05-25T08:15:17.663Z,37.06
2023-05-25T08:17:45.153Z,36.38
2023-05-25T08:20:20.280Z,37.97
2023-05-25T08:22:50.057Z,39.30
2023-05-25T08:25:16.973Z,38.95
2023-05-25T08:27:49.081Z,38.58
2023-05-25T08:30:15.837Z,37.95
2023-05-25T08:32:44.484Z,39.53
2023-05-25T08:35:11.223Z,40.56
2023-05-25T08:37:38.344Z,43.94
2023-05-25T08:40:08.011Z,45.53
2023-05-25T08:42:35.041Z,45.21
2023-05-25T08:45:04.603Z,44.75
2023-05-25T08:47:36.791Z,47.58
2023-05-25T08:50:03.991Z,49.21
2023-05-25T08:52:33.849Z,49.63
2023-05-25T08:55:06.432Z,47.78
2023-05-25T08:57:55.918Z,51.33
2023-05-25T09:00:34.372Z,53.73
2023-05-25T09:03:18.396Z,54.12
2023-05-25T09:05:46.476Z,55.26
2023-05-25T09:08:13.972Z,55.05
2023-05-25T09:10:41.501Z,54.96
2023-05-25T09:13:21.165Z,55.50
2023-05-25T09:15:49.700Z,54.76
2023-05-25T09:18:17.622Z,54.89
2023-05-25T09:20:46.926Z,54.86
2023-05-25T09:23:15.286Z,54.79
2023-05-25T09:25:42.687Z,54.97
2023-05-25T09:30:39.565Z,54.20
2023-05-25T09:33:13.602Z,53.79
2023-05-25T09:35:44.421Z,53.49
2023-05-25T09:38:15.777Z,52.25
2023-05-25T09:40:45.604Z,51.66
2023-05-25T09:43:22.013Z,51.67
2023-05-25T09:45:55.339Z,49.27
2023-05-25T09:48:22.351Z,49.35
2023-05-25T09:50:50.159Z,48.86
2023-05-25T09:53:19.292Z,49.33
2023-05-25T09:55:53.934Z,50.86
2023-05-25T09:58:23.734Z,51.26
2023-05-25T10:00:55.828Z,51.49
2023-05-25T10:03:22.825Z,51.12
2023-05-25T10:05:49.959Z,50.48
2023-05-25T10:08:20.236Z,50.20
2023-05-25T10:10:50.126Z,50.83
2023-05-25T10:13:22.154Z,51.54
2023-05-25T10:15:55.675Z,52.22
2023-05-25T10:18:28.277Z,52.31
2023-05-25T10:21:03.609Z,52.02
2023-05-25T10:23:38.248Z,51.32
2023-05-25T10:26:06.742Z,51.33
2023-05-25T10:28:37.384Z,51.23
2023-05-25T10:31:05.422Z,51.25
2023-05-25T10:33:34.161Z,52.22
2023-05-25T10:36:10.542Z,51.58
2023-05-25T10:38:40.637Z,50.96
2023-05-25T10:41:13.847Z,50.41
2023-05-25T10:43:41.564Z,50.56
2023-05-25T10:46:09.074Z,50.34
2023-05-25T10:48:40.666Z,50.54
2023-05-25T10:51:12.028Z,50.54
2023-05-25T10:53:39.124Z,50.89
2023-05-25T10:56:08.875Z,51.04
2023-05-25T10:58:36.543Z,51.08
2023-05-25T11:01:11.003Z,50.76
2023-05-25T11:03:45.968Z,50.55
2023-05-25T11:06:22.734Z,50.86
2023-05-25T11:08:59.841Z,51.03
2023-05-25T11:11:47.832Z,50.99
2023-05-25T11:14:30.098Z,50.34
2023-05-25T11:17:15.083Z,49.51
2023-05-25T11:19:56.569Z,49.48
2023-05-25T11:22:33.774Z,49.25
2023-05-25T11:25:02.006Z,49.53
2023-05-25T11:27:30.819Z,49.30
2023-05-25T11:29:59.390Z,49.31
2023-05-25T11:32:27.296Z,49.55
2023-05-25T11:34:58.833Z,50.05
2023-05-25T11:37:29.212Z,50.24
2023-05-25T11:39:56.096Z,49.94
2023-05-25T11:42:26.575Z,50.14
2023-05-25T11:44:53.822Z,49.76
2023-05-25T11:47:23.984Z,49.97
2023-05-25T11:49:50.926Z,49.95
2023-05-25T11:52:22.428Z,50.27
2023-05-25T11:54:49.359Z,50.16
2023-05-25T11:57:20.949Z,49.57
2023-05-25T12:00:01.391Z,49.40
2023-05-25T12:02:28.353Z,49.23
2023-05-25T12:04:56.330Z,48.57
2023-05-25T12:07:24.139Z,48.59
2023-05-25T12:09:50.916Z,47.99
2023-05-25T12:12:17.814Z,47.32
2023-05-25T12:14:51.479Z,47.50
2023-05-25T12:17:21.510Z,47.32
2023-05-25T12:19:49.163Z,47.51
2023-05-25T12:22:16.473Z,47.57
2023-05-25T12:24:43.530Z,48.02
2023-05-25T12:27:18.224Z,47.91
2023-05-25T12:29:48.636Z,47.12
2023-05-25T12:32:16.140Z,47.31
2023-05-25T12:34:43.696Z,47.45
2023-05-25T12:37:21.077Z,46.93
2023-05-25T12:39:51.076Z,46.81
2023-05-25T12:42:18.078Z,47.10
2023-05-25T12:44:46.717Z,46.89
2023-05-25T12:47:16.067Z,47.23
2023-05-25T12:49:44.850Z,47.62
2023-05-25T12:52:31.235Z,47.31
2023-05-25T12:54:58.038Z,47.57
2023-05-25T12:57:36.358Z,47.30
2023-05-25T13:00:03.897Z,46.80
2023-05-25T13:02:30.815Z,47.42
2023-05-25T13:04:57.548Z,47.73
2023-05-25T13:07:28.077Z,47.66
2023-05-25T13:09:55.076Z,47.54
2023-05-25T13:12:21.927Z,47.22
2023-05-25T13:14:49.235Z,47.05
2023-05-25T13:17:16.110Z,46.97
2023-05-25T13:19:42.809Z,47.17
2023-05-25T13:22:09.633Z,47.19
2023-05-25T13:24:36.370Z,47.37
2023-05-25T13:27:04.341Z,47.16
2023-05-25T13:29:33.318Z,47.52
2023-05-25T13:32:00.092Z,46.87
2023-05-25T13:34:27.115Z,46.85
2023-05-25T13:36:54.015Z,46.73
2023-05-25T13:39:23.029Z,47.40
2023-05-25T13:41:49.961Z,46.25
2023-05-25T13:44:21.425Z,46.06
2023-05-25T13:46:48.605Z,46.35
2023-05-25T13:49:16.596Z,46.22
2023-05-25T13:51:43.294Z,46.18
2023-05-25T13:54:10.100Z,46.01
2023-05-25T13:56:36.865Z,46.06
2023-05-25T13:59:04.032Z,45.65
2023-05-25T14:01:33.020Z,45.91
2023-05-25T14:04:00.654Z,45.98
2023-05-25T14:06:28.909Z,45.83
2023-05-25T14:08:56.134Z,46.42
2023-05-25T14:11:28.190Z,46.35
2023-05-25T14:13:55.898Z,46.32
2023-05-25T14:16:23.024Z,46.34
2023-05-25T14:18:50.250Z,46.20
2023-05-25T14:21:17.293Z,46.49
2023-05-25T14:23:44.892Z,46.03
2023-05-25T14:26:12.733Z,46.65
2023-05-25T14:28:41.957Z,46.59
2023-05-25T14:31:08.818Z,46.76
2023-05-25T14:33:38.730Z,46.40
2023-05-25T14:36:06.452Z,47.04
2023-05-25T14:38:33.355Z,46.85
2023-05-25T14:41:00.214Z,46.73
2023-05-25T14:43:27.051Z,47.14
2023-05-25T14:45:53.758Z,46.83
2023-05-25T14:48:25.403Z,46.76
2023-05-25T14:50:53.176Z,47.22
2023-05-25T14:53:19.877Z,47.51
2023-05-25T14:55:46.907Z,47.59
2023-05-25T14:58:15.076Z,47.75
2023-05-25T15:00:41.782Z,48.15
2023-05-25T15:03:08.796Z,48.21
2023-05-25T15:05:37.936Z,48.54
2023-05-25T15:08:05.661Z,48.03
2023-05-25T15:10:32.633Z,47.56
2023-05-25T15:12:59.561Z,47.35
2023-05-25T15:15:26.406Z,46.85
2023-05-25T15:17:53.243Z,46.46
2023-05-25T15:20:20.176Z,46.92
2023-05-25T15:22:46.938Z,47.00
2023-05-25T15:25:18.984Z,46.95
2023-05-25T15:27:51.494Z,46.76
2023-05-25T15:30:19.353Z,47.00
2023-05-25T15:32:46.222Z,47.43
2023-05-25T15:35:13.028Z,47.64
2023-05-25T15:37:39.865Z,47.79
2023-05-25T15:40:07.150Z,47.53
2023-05-25T15:42:33.770Z,47.39
2023-05-25T15:45:00.607Z,46.87
2023-05-25T15:47:27.411Z,46.22
2023-05-25T15:49:54.163Z,46.28
2023-05-25T15:52:23.287Z,46.57
2023-05-25T15:54:49.968Z,47.35
2023-05-25T15:57:23.479Z,47.70
2023-05-25T15:59:51.554Z,47.58
2023-05-25T16:02:18.423Z,47.67
2023-05-25T16:04:45.359Z,47.71
2023-05-25T16:07:12.568Z,47.64
2023-05-25T16:09:39.364Z,47.96
2023-05-25T16:12:07.061Z,47.86
2023-05-25T16:14:33.746Z,48.01
2023-05-25T16:17:00.543Z,47.66
2023-05-25T16:19:27.510Z,47.12
2023-05-25T16:21:54.540Z,47.30
2023-05-25T16:24:21.736Z,47.25
2023-05-25T16:26:51.341Z,47.24
2023-05-25T16:29:18.725Z,47.16
2023-05-25T16:31:46.320Z,47.51
2023-05-25T16:34:13.481Z,46.92
2023-05-25T16:36:40.819Z,47.24
2023-05-25T16:39:12.085Z,47.62
2023-05-25T16:41:39.132Z,48.43
2023-05-25T16:44:08.012Z,48.54
2023-05-25T16:46:35.147Z,48.10
2023-05-25T16:49:04.420Z,47.71
2023-05-25T16:51:33.944Z,48.00
2023-05-25T16:54:00.972Z,48.13
2023-05-25T16:56:30.411Z,48.42
2023-05-25T16:58:57.177Z,48.37
2023-05-25T17:01:24.072Z,48.24
2023-05-25T17:03:53.093Z,48.24
2023-05-25T17:06:20.129Z,47.91
2023-05-25T17:08:46.869Z,47.93
2023-05-25T17:11:18.172Z,47.91
2023-05-25T17:13:44.927Z,47.83
2023-05-25T17:16:11.855Z,48.17
2023-05-25T17:18:38.574Z,48.23
2023-05-25T17:21:05.696Z,48.09
2023-05-25T17:23:32.411Z,47.68
2023-05-25T17:25:59.241Z,47.66
2023-05-25T17:28:27.748Z,47.40
2023-05-25T17:30:56.592Z,47.45
2023-05-25T17:33:23.519Z,47.49
2023-05-25T17:35:50.442Z,47.52
2023-05-25T17:38:17.537Z,47.71
2023-05-25T17:40:44.437Z,48.05
2023-05-25T17:43:13.731Z,48.02
2023-05-25T17:45:40.999Z,48.45
2023-05-25T17:48:07.927Z,48.74
2023-05-25T17:50:34.740Z,49.07
2023-05-25T17:53:01.845Z,49.02
2023-05-25T17:55:28.771Z,49.29
2023-05-25T17:57:55.495Z,49.40
2023-05-25T18:00:24.686Z,49.77
2023-05-25T18:02:53.973Z,50.00
2023-05-25T18:05:20.824Z,49.93
2023-05-25T18:07:47.676Z,50.23
2023-05-25T18:10:14.950Z,50.60
2023-05-25T18:12:41.857Z,50.54
2023-05-25T18:15:09.285Z,51.00
2023-05-25T18:17:36.040Z,51.04
2023-05-25T18:20:03.157Z,51.26
2023-05-25T18:22:29.990Z,51.29
2023-05-25T18:24:56.609Z,51.19
2023-05-25T18:27:23.434Z,51.32
2023-05-25T18:29:52.305Z,51.21
2023-05-25T18:32:21.194Z,51.48
2023-05-25T18:34:48.466Z,51.66
2023-05-25T18:37:16.052Z,52.11
2023-05-25T18:39:43.099Z,52.62
2023-05-25T18:42:09.944Z,52.78
2023-05-25T18:44:36.603Z,53.30
2023-05-25T18:47:03.570Z,53.65
2023-05-25T18:49:34.678Z,54.01
2023-05-25T18:52:01.645Z,54.44
2023-05-25T18:54:28.423Z,55.03
2023-05-25T18:56:55.189Z,55.22
2023-05-25T18:59:21.903Z,55.08
2023-05-25T19:01:48.824Z,55.44
2023-05-25T19:04:15.949Z,55.68
2023-05-25T19:06:42.826Z,55.96
2023-05-25T19:09:09.698Z,56.47
2023-05-25T19:11:36.378Z,56.50
2023-05-25T19:14:03.097Z,56.58
2023-05-25T19:16:29.818Z,56.71
2023-05-25T19:18:59.064Z,57.13
2023-05-25T19:21:26.933Z,57.26
2023-05-25T19:23:54.360Z,57.74
2023-05-25T19:26:21.271Z,57.34
2023-05-25T19:28:48.152Z,57.95
2023-05-25T19:31:15.601Z,57.82
2023-05-25T19:33:42.757Z,58.06
2023-05-25T19:36:09.529Z,58.28
2023-05-25T19:38:41.278Z,58.33
2023-05-25T19:41:11.576Z,58.58
2023-05-25T19:43:38.774Z,58.88
2023-05-25T19:46:05.998Z,58.89
2023-05-25T19:48:32.756Z,59.09
2023-05-25T19:51:01.044Z,59.13
2023-05-25T19:53:31.607Z,59.32
2023-05-25T19:55:58.877Z,59.45
2023-05-25T19:58:28.149Z,59.65
2023-05-25T20:00:55.227Z,59.82
2023-05-25T20:03:22.180Z,59.83
2023-05-25T20:05:49.110Z,59.87
2023-05-25T20:08:16.040Z,60.19
2023-05-25T20:10:45.011Z,59.96
2023-05-25T20:13:12.840Z,60.61
2023-05-25T20:15:42.332Z,60.53
2023-05-25T20:18:09.200Z,60.65
2023-05-25T20:20:38.542Z,60.57
2023-05-25T20:23:06.206Z,60.75
2023-05-25T20:25:33.076Z,60.83
2023-05-25T20:27:59.708Z,61.09
2023-05-25T20:30:29.850Z,61.36
2023-05-25T20:32:56.692Z,61.03
2023-05-25T20:35:25.798Z,61.34
2023-05-25T20:37:52.833Z,61.38
2023-05-25T20:40:19.682Z,61.50
2023-05-25T20:42:46.944Z,61.74
2023-05-25T20:45:13.984Z,61.59
2023-05-25T20:47:41.141Z,61.97
2023-05-25T20:50:10.641Z,61.90
2023-05-25T20:52:37.578Z,62.13
2023-05-25T20:55:05.191Z,62.09
2023-05-25T20:57:32.129Z,62.18
2023-05-25T21:00:00.022Z,62.20
2023-05-25T21:02:28.957Z,62.63
2023-05-25T21:04:55.719Z,62.56
2023-05-25T21:07:22.639Z,63.02
2023-05-25T21:09:49.492Z,63.08
2023-05-25T21:12:16.223Z,62.78
2023-05-25T21:14:43.049Z,63.07
2023-05-25T21:17:10.143Z,63.12
2023-05-25T21:19:37.004Z,63.16
2023-05-25T21:22:03.964Z,63.02
2023-05-25T21:24:31.624Z,63.39
2023-05-25T21:27:01.660Z,63.54
2023-05-25T21:29:28.383Z,63.79
2023-05-25T21:31:55.494Z,63.56
2023-05-25T21:34:22.631Z,63.99
2023-05-25T21:36:49.881Z,64.17
2023-05-25T21:39:17.374Z,64.21
2023-05-25T21:41:47.118Z,64.48
2023-05-25T21:44:13.761Z,64.41
2023-05-25T21:46:40.631Z,64.48
2023-05-25T21:49:07.548Z,64.56
2023-05-25T21:51:34.200Z,65.24
2023-05-25T21:54:01.182Z,65.00
2023-05-25T21:56:30.107Z,65.21
2023-05-25T21:58:56.903Z,65.27
2023-05-25T22:01:24.195Z,65.15
2023-05-25T22:03:51.256Z,65.47
2023-05-25T22:06:18.312Z,65.83
2023-05-25T22:08:45.098Z,66.16
2023-05-25T22:11:11.908Z,66.07
2023-05-25T22:13:38.650Z,66.42
2023-05-25T22:16:06.206Z,66.41
2023-05-25T22:18:34.384Z,66.08
2023-05-25T22:21:02.191Z,66.28
2023-05-25T22:23:31.070Z,66.90
2023-05-25T22:25:59.949Z,67.10
2023-05-25T22:28:28.957Z,66.83
2023-05-25T22:30:58.200Z,67.09
2023-05-25T22:33:25.451Z,67.23
2023-05-25T22:35:52.214Z,67.39
2023-05-25T22:38:22.100Z,67.39
2023-05-25T22:40:48.873Z,67.61
2023-05-25T22:43:15.813Z,67.65
2023-05-25T22:45:42.778Z,67.70
2023-05-25T22:48:13.199Z,67.82
2023-05-25T22:50:40.052Z,67.85
2023-05-25T22:53:06.936Z,67.74
2023-05-25T22:55:33.694Z,67.92
2023-05-25T22:58:00.346Z,68.17
2023-05-25T23:00:29.460Z,68.75
2023-05-25T23:02:56.604Z,68.74
2023-05-25T23:05:23.405Z,68.84
2023-05-25T23:07:52.166Z,68.90
2023-05-25T23:10:18.971Z,68.77
2023-05-25T23:12:46.682Z,68.95
2023-05-25T23:15:13.327Z,69.30
2023-05-25T23:17:42.287Z,68.87
2023-05-25T23:20:10.589Z,69.89
2023-05-25T23:22:37.590Z,69.63
2023-05-25T23:25:07.087Z,69.78
2023-05-25T23:27:33.857Z,70.02
2023-05-25T23:30:03.566Z,69.78
2023-05-25T23:32:30.416Z,69.76
2023-05-25T23:34:57.542Z,70.21
2023-05-25T23:37:24.403Z,69.96
2023-05-25T23:39:51.524Z,70.10
2023-05-25T23:42:19.263Z,70.60
2023-05-25T23:44:46.314Z,70.08
2023-05-25T23:47:13.049Z,70.39
2023-05-25T23:49:42.564Z,70.25
2023-05-25T23:52:09.270Z,70.38
2023-05-25T23:54:37.347Z,70.70
2023-05-25T23:57:04.379Z,70.78
2023-05-25T23:59:31.230Z,71.51
